Time;durP1;ratioP1;P1;durP2;ratioP2;P2;SDS_P1;SDS_P2;PMS_P1;PMS_P2;Temp;Humidity;BMP_temperature;BMP_pressure;BME280_temperature;BME280_humidity;BME280_pressure;Samples;Min_cycle;Max_cycle;Signal;HPM_P1;HPM_P2
2023/02/05 00:00:07;;;;;;;24.30;15.27;;;10.40;99.90;;;;;;5075819;28;20583;-80
2023/02/05 00:02:33;;;;;;;25.77;15.38;;;10.30;99.90;;;;;;5072343;28;20210;-77
2023/02/05 00:04:59;;;;;;;31.17;14.65;;;10.40;99.90;;;;;;5070753;28;20526;-79
2023/02/05 00:07:25;;;;;;;24.60;14.90;;;10.30;99.90;;;;;;5072212;28;20170;-79
2023/02/05 00:09:51;;;;;;;24.65;14.85;;;10.40;99.90;;;;;;5070884;28;20178;-79
2023/02/05 00:12:16;;;;;;;23.90;15.00;;;10.30;99.90;;;;;;5072043;28;20662;-78
2023/02/05 00:14:42;;;;;;;30.58;15.15;;;10.30;99.90;;;;;;5072310;28;20167;-79
2023/02/05 00:17:07;;;;;;;22.67;15.80;;;10.30;99.90;;;;;;5072120;28;20171;-83
2023/02/05 00:19:33;;;;;;;30.27;15.85;;;10.30;99.90;;;;;;5072278;28;20170;-80
2023/02/05 00:21:59;;;;;;;22.90;14.05;;;10.40;99.90;;;;;;5071843;28;20312;-80
2023/02/05 00:24:24;;;;;;;21.13;13.88;;;10.40;99.90;;;;;;5072253;28;20170;-79
2023/02/05 00:26:50;;;;;;;22.02;14.55;;;10.30;99.90;;;;;;5075793;28;20269;-79
2023/02/05 00:29:15;;;;;;;19.00;13.05;;;10.20;99.90;;;;;;5076053;28;20159;-79
2023/02/05 00:31:41;;;;;;;25.40;13.63;;;10.30;99.90;;;;;;5075837;28;20234;-82
2023/02/05 00:34:07;;;;;;;23.58;13.80;;;10.30;99.90;;;;;;5075681;28;20166;-83
2023/02/05 00:36:32;;;;;;;28.52;14.57;;;10.40;99.90;;;;;;5075777;28;20185;-80
2023/02/05 00:38:58;;;;;;;29.67;14.75;;;10.50;99.90;;;;;;5075894;28;20208;-77
2023/02/05 00:41:23;;;;;;;26.55;15.05;;;10.40;99.90;;;;;;5074316;28;20190;-77
2023/02/05 00:43:49;;;;;;;23.38;13.80;;;10.60;99.90;;;;;;5075963;28;20212;-79
2023/02/05 00:46:15;;;;;;;23.63;12.90;;;10.50;99.90;;;;;;5075972;28;20171;-79
2023/02/05 00:48:42;;;;;;;21.25;13.57;;;10.50;99.90;;;;;;5075844;28;20224;-80
2023/02/05 00:51:08;;;;;;;17.98;12.35;;;10.40;99.90;;;;;;5075343;28;20217;-80
2023/02/05 00:53:34;;;;;;;21.90;12.73;;;10.50;99.90;;;;;;5075480;28;20170;-79
2023/02/05 00:56:00;;;;;;;23.00;14.00;;;10.50;99.90;;;;;;5075405;28;20224;-78
2023/02/05 00:58:25;;;;;;;23.42;14.43;;;10.70;99.90;;;;;;5075259;28;20166;-80
2023/02/05 01:00:51;;;;;;;24.17;14.15;;;10.80;99.90;;;;;;5075057;28;20200;-80
2023/02/05 01:03:18;;;;;;;23.02;13.98;;;10.80;99.90;;;;;;5075347;28;20579;-79
2023/02/05 01:05:44;;;;;;;24.70;14.45;;;10.80;99.90;;;;;;5075076;28;20171;-77
2023/02/05 01:08:11;;;;;;;25.38;14.18;;;10.80;99.90;;;;;;5075407;28;20158;-78
2023/02/05 01:10:37;;;;;;;21.85;14.07;;;10.70;99.90;;;;;;5057442;28;20669;-80
2023/02/05 01:13:04;;;;;;;22.58;13.77;;;10.60;99.90;;;;;;5074229;28;20173;-78
2023/02/05 01:15:30;;;;;;;24.67;14.25;;;10.70;99.90;;;;;;5075450;28;20258;-79
2023/02/05 01:17:58;;;;;;;25.30;13.65;;;10.70;99.90;;;;;;5075232;28;20185;-82
2023/02/05 01:20:23;;;;;;;29.13;12.98;;;10.70;99.90;;;;;;5075309;28;20389;-80
2023/02/05 01:22:49;;;;;;;25.83;14.30;;;10.60;99.90;;;;;;5073923;28;20266;-80
2023/02/05 01:25:14;;;;;;;20.88;14.25;;;10.80;99.90;;;;;;5075264;28;20174;-80
2023/02/05 01:27:40;;;;;;;26.40;13.20;;;10.70;99.90;;;;;;5079849;28;20584;-81
2023/02/05 01:30:06;;;;;;;22.63;14.45;;;10.70;99.90;;;;;;5075854;28;20198;-81
2023/02/05 01:32:32;;;;;;;21.65;11.98;;;10.70;99.90;;;;;;5074576;28;20693;-78
2023/02/05 01:34:58;;;;;;;22.08;13.07;;;10.60;99.90;;;;;;5074548;28;20171;-78
2023/02/05 01:37:24;;;;;;;20.60;12.40;;;10.60;99.90;;;;;;5073449;28;20209;-80
2023/02/05 01:39:49;;;;;;;18.02;12.00;;;10.60;99.90;;;;;;5074656;28;20169;-80
2023/02/05 01:42:27;;;;;;;21.83;13.05;;;10.70;99.90;;;;;;5074603;28;20272;-77
2023/02/05 01:45:20;;;;;;;24.33;12.80;;;10.50;99.90;;;;;;5074871;28;20174;-77
2023/02/05 01:47:54;;;;;;;24.38;13.00;;;10.40;99.90;;;;;;5074755;28;20167;-79
2023/02/05 01:50:27;;;;;;;24.08;12.80;;;10.40;99.90;;;;;;5074448;28;20166;-80
2023/02/05 01:52:53;;;;;;;23.20;12.20;;;10.20;99.90;;;;;;5074167;28;20627;-84
2023/02/05 01:55:20;;;;;;;19.23;11.35;;;10.10;99.90;;;;;;5074862;28;20201;-79
2023/02/05 01:57:47;;;;;;;17.02;11.25;;;10.10;99.90;;;;;;5073091;28;20178;-79
2023/02/05 02:00:13;;;;;;;15.02;10.63;;;10.10;99.90;;;;;;5074478;28;20171;-80
2023/02/05 02:02:39;;;;;;;17.30;11.07;;;10.00;99.90;;;;;;5074601;28;20216;-84
2023/02/05 02:05:11;;;;;;;15.40;9.93;;;10.00;99.90;;;;;;5073854;28;20163;-79
2023/02/05 02:10:03;;;;;;;15.20;10.27;;;10.10;99.90;;;;;;5073657;28;20166;-83
2023/02/05 02:12:32;;;;;;;15.40;9.57;;;10.00;99.90;;;;;;5073594;28;20209;-82
2023/02/05 02:15:08;;;;;;;20.98;8.68;;;10.00;99.90;;;;;;5072532;28;20159;-78
2023/02/05 02:17:38;;;;;;;10.43;7.50;;;9.90;99.90;;;;;;5073922;28;20162;-80
2023/02/05 02:20:07;;;;;;;12.98;8.88;;;9.90;99.90;;;;;;5073099;28;20198;-79
2023/02/05 02:22:51;;;;;;;18.63;8.18;;;9.90;99.90;;;;;;5073858;28;20212;-83
2023/02/05 02:25:19;;;;;;;15.23;7.65;;;10.00;99.90;;;;;;5073734;28;20174;-79
2023/02/05 02:28:12;;;;;;;11.23;7.15;;;9.90;99.90;;;;;;5074038;28;20179;-79
2023/02/05 02:30:45;;;;;;;11.50;7.65;;;9.90;99.90;;;;;;5073557;28;20200;-79
2023/02/05 02:33:45;;;;;;;8.70;6.85;;;10.00;99.90;;;;;;5072385;28;20602;-84
2023/02/05 02:36:29;;;;;;;12.43;6.50;;;9.90;99.90;;;;;;5073644;28;20166;-79
2023/02/05 02:39:22;;;;;;;10.25;6.30;;;9.90;99.90;;;;;;5073760;28;20178;-79
2023/02/05 02:41:59;;;;;;;6.88;6.28;;;9.90;99.90;;;;;;5073548;28;20186;-79
2023/02/05 02:44:42;;;;;;;5.82;5.32;;;10.00;99.90;;;;;;5072492;28;20228;-79
2023/02/05 02:47:15;;;;;;;8.60;5.57;;;10.10;99.90;;;;;;5073229;28;20162;-79
2023/02/05 02:49:46;;;;;;;6.22;5.07;;;10.00;99.90;;;;;;5073342;28;20173;-79
2023/02/05 02:52:16;;;;;;;6.90;4.88;;;10.00;99.90;;;;;;5073113;28;20686;-79
2023/02/05 02:54:45;;;;;;;5.40;4.18;;;10.00;99.90;;;;;;5072959;28;20184;-79
2023/02/05 02:57:14;;;;;;;10.75;4.45;;;9.90;99.90;;;;;;5072799;28;20185;-79
2023/02/05 02:59:43;;;;;;;4.38;3.97;;;10.00;99.90;;;;;;5073389;28;20206;-83
2023/02/05 03:02:10;;;;;;;5.13;4.63;;;9.80;99.90;;;;;;5071716;28;20197;-81
2023/02/05 03:04:43;;;;;;;5.68;3.42;;;9.80;99.90;;;;;;5073054;28;20166;-83
2023/02/05 03:07:30;;;;;;;5.10;4.55;;;9.60;99.90;;;;;;5072835;28;20197;-79
2023/02/05 03:10:00;;;;;;;4.28;3.80;;;9.60;99.90;;;;;;5071693;28;20598;-78
2023/02/05 03:12:26;;;;;;;4.60;4.05;;;9.70;99.90;;;;;;5072790;28;20213;-79
2023/02/05 03:14:52;;;;;;;10.63;4.22;;;9.60;99.90;;;;;;5073122;28;20245;-78
2023/02/05 03:17:19;;;;;;;7.63;3.45;;;9.60;99.90;;;;;;5072770;28;20162;-83
2023/02/05 03:19:47;;;;;;;6.40;3.50;;;9.80;99.90;;;;;;5073215;28;20709;-79
2023/02/05 03:22:13;;;;;;;5.55;3.60;;;9.70;99.90;;;;;;5072757;28;20202;-81
2023/02/05 03:24:39;;;;;;;3.72;3.17;;;9.60;99.90;;;;;;5072741;28;20170;-80
2023/02/05 03:27:05;;;;;;;5.45;2.97;;;9.50;99.90;;;;;;5072534;28;20265;-78
2023/02/05 03:29:37;;;;;;;7.00;4.10;;;9.70;99.90;;;;;;5072654;28;20257;-79
2023/02/05 03:32:28;;;;;;;4.78;3.90;;;9.60;99.90;;;;;;5072445;28;20202;-82
2023/02/05 03:34:57;;;;;;;3.70;3.30;;;9.60;99.90;;;;;;5072771;28;20162;-79
2023/02/05 03:37:38;;;;;;;8.20;3.88;;;9.50;99.90;;;;;;5072481;28;20169;-79
2023/02/05 03:40:29;;;;;;;3.97;3.03;;;9.40;99.90;;;;;;5073049;28;20167;-79
2023/02/05 03:43:22;;;;;;;5.75;3.53;;;9.50;99.90;;;;;;5072632;28;20174;-79
2023/02/05 03:46:13;;;;;;;7.97;2.90;;;9.50;99.90;;;;;;5071288;28;20170;-79
2023/02/05 03:48:54;;;;;;;3.33;3.00;;;9.50;99.90;;;;;;5065501;28;20223;-79
2023/02/05 03:51:28;;;;;;;6.28;3.03;;;9.50;99.90;;;;;;5071758;28;20694;-78
2023/02/05 03:54:06;;;;;;;5.35;3.80;;;9.70;99.90;;;;;;5072353;28;20167;-79
2023/02/05 03:56:45;;;;;;;5.88;3.28;;;9.70;99.90;;;;;;5072335;28;20171;-79
2023/02/05 03:59:13;;;;;;;7.72;3.75;;;9.70;99.90;;;;;;5072101;28;20172;-80
2023/02/05 04:01:39;;;;;;;3.90;3.25;;;9.70;99.90;;;;;;5071855;28;20654;-80
2023/02/05 04:04:05;;;;;;;7.95;3.63;;;9.70;99.90;;;;;;5072358;28;20173;-79
2023/02/05 04:06:30;;;;;;;10.02;4.07;;;9.70;99.90;;;;;;5070797;28;20170;-78
2023/02/05 04:08:56;;;;;;;5.85;3.47;;;9.60;99.90;;;;;;5072114;28;20176;-79
2023/02/05 04:11:21;;;;;;;6.75;3.72;;;9.60;99.90;;;;;;5070729;28;20571;-79
2023/02/05 04:13:47;;;;;;;11.50;3.50;;;9.60;99.90;;;;;;5072123;28;20171;-79
2023/02/05 04:16:13;;;;;;;5.05;3.85;;;9.70;99.90;;;;;;5070751;28;20167;-83
2023/02/05 04:18:38;;;;;;;10.60;4.32;;;9.50;99.90;;;;;;5072095;28;20181;-77
2023/02/05 04:21:04;;;;;;;6.05;4.35;;;9.50;99.90;;;;;;5070675;28;20194;-79
2023/02/05 04:23:31;;;;;;;13.52;4.18;;;9.40;99.90;;;;;;5072217;28;20568;-79
2023/02/05 04:25:56;;;;;;;7.03;5.30;;;9.40;99.90;;;;;;5071988;28;20173;-79
2023/02/05 04:28:22;;;;;;;11.70;3.63;;;9.40;99.90;;;;;;5072005;28;20535;-80
2023/02/05 04:30:47;;;;;;;8.18;4.25;;;9.40;99.90;;;;;;5071801;28;20202;-79
2023/02/05 04:33:13;;;;;;;7.00;4.35;;;9.50;99.90;;;;;;5071888;28;20642;-79
2023/02/05 04:35:38;;;;;;;11.60;4.88;;;9.50;99.90;;;;;;5071635;28;20170;-77
2023/02/05 04:38:04;;;;;;;8.48;4.57;;;9.60;99.90;;;;;;5071911;28;20162;-79
2023/02/05 04:40:30;;;;;;;9.57;5.60;;;9.70;99.90;;;;;;5071446;28;20586;-79
2023/02/05 04:42:55;;;;;;;12.20;5.22;;;9.60;99.90;;;;;;5071548;28;20174;-79
2023/02/05 04:45:21;;;;;;;9.25;4.78;;;9.50;99.90;;;;;;5071722;28;20259;-79
2023/02/05 04:47:47;;;;;;;8.68;5.55;;;9.50;99.90;;;;;;5071858;28;20190;-82
2023/02/05 04:50:13;;;;;;;16.27;5.80;;;9.50;99.90;;;;;;5071828;28;20198;-79
2023/02/05 04:52:38;;;;;;;9.35;5.97;;;9.40;99.90;;;;;;5070413;28;20181;-78
2023/02/05 04:55:04;;;;;;;11.27;6.38;;;9.30;99.90;;;;;;5071750;28;20622;-80
2023/02/05 04:57:30;;;;;;;9.63;6.68;;;9.30;99.90;;;;;;5071665;28;20220;-79
2023/02/05 04:59:56;;;;;;;7.47;6.28;;;9.20;99.90;;;;;;5071706;28;20159;-79
2023/02/05 05:02:23;;;;;;;7.95;6.65;;;9.10;99.90;;;;;;5071472;28;20186;-81
2023/02/05 05:04:48;;;;;;;9.45;6.50;;;9.20;99.90;;;;;;5070286;28;20167;-79
2023/02/05 05:07:15;;;;;;;18.27;8.00;;;9.30;99.90;;;;;;5070025;28;20261;-79
2023/02/05 05:09:40;;;;;;;17.45;7.85;;;9.20;99.90;;;;;;5071479;28;20166;-81
2023/02/05 05:12:06;;;;;;;11.98;8.27;;;9.20;99.90;;;;;;5073832;28;20210;-77
2023/02/05 05:14:32;;;;;;;14.02;8.13;;;9.10;99.90;;;;;;5075265;28;20250;-79
2023/02/05 05:16:57;;;;;;;14.63;9.25;;;9.10;99.90;;;;;;5073845;28;20239;-83
2023/02/05 05:19:23;;;;;;;10.00;8.95;;;9.10;99.90;;;;;;5075113;28;20242;-79
2023/02/05 05:21:48;;;;;;;15.98;10.18;;;9.10;99.90;;;;;;5074586;28;20190;-79
2023/02/05 05:24:14;;;;;;;14.18;9.55;;;9.20;99.90;;;;;;5075095;28;20154;-79
2023/02/05 05:26:42;;;;;;;12.25;9.32;;;9.00;99.90;;;;;;5075058;28;20190;-79
2023/02/05 05:29:10;;;;;;;11.25;8.82;;;9.00;99.90;;;;;;5075124;28;20245;-79
2023/02/05 05:31:35;;;;;;;19.55;9.80;;;9.00;99.90;;;;;;5074736;28;20275;-79
2023/02/05 05:34:01;;;;;;;11.27;10.07;;;9.00;99.90;;;;;;5075059;28;20162;-79
2023/02/05 05:36:27;;;;;;;13.57;11.82;;;9.00;99.90;;;;;;5074780;28;20641;-78
2023/02/05 05:38:52;;;;;;;12.55;10.50;;;9.00;99.90;;;;;;5075135;28;20702;-79
2023/02/05 05:44:05;;;;;;;17.33;11.65;;;9.00;99.90;;;;;;5074619;28;20827;-79
2023/02/05 05:46:30;;;;;;;23.65;12.60;;;9.10;99.90;;;;;;5074312;28;20261;-79
2023/02/05 05:48:58;;;;;;;16.92;12.35;;;9.10;99.90;;;;;;5073433;28;20189;-79
2023/02/05 05:51:26;;;;;;;14.90;11.57;;;9.10;99.90;;;;;;5074566;28;20206;-79
2023/02/05 05:53:52;;;;;;;21.30;12.30;;;9.20;99.90;;;;;;5074160;28;20269;-79
2023/02/05 05:56:18;;;;;;;18.80;12.43;;;9.30;99.90;;;;;;5074071;28;20166;-79
2023/02/05 05:58:44;;;;;;;26.65;13.38;;;9.10;99.90;;;;;;5074216;28;20163;-78
2023/02/05 06:01:17;;;;;;;17.90;13.68;;;9.20;99.90;;;;;;5074459;28;20186;-77
2023/02/05 06:03:43;;;;;;;19.40;13.98;;;9.10;99.90;;;;;;5074572;28;20163;-79
2023/02/05 06:06:10;;;;;;;19.23;13.48;;;9.00;99.90;;;;;;5074061;28;20178;-79
2023/02/05 06:08:36;;;;;;;17.30;13.18;;;8.90;99.90;;;;;;5074189;28;20173;-77
2023/02/05 06:11:02;;;;;;;20.10;14.00;;;8.90;99.90;;;;;;5073434;28;20301;-80
2023/02/05 06:13:28;;;;;;;16.70;14.32;;;8.80;99.90;;;;;;5073950;28;20197;-79
2023/02/05 06:15:53;;;;;;;18.92;14.57;;;8.80;99.90;;;;;;5072690;28;20171;-79
2023/02/05 06:18:19;;;;;;;19.17;13.85;;;8.90;99.90;;;;;;5073847;28;20170;-79
2023/02/05 06:20:45;;;;;;;18.73;13.45;;;8.80;99.90;;;;;;5073900;28;20323;-79
2023/02/05 06:23:11;;;;;;;16.00;12.98;;;8.80;99.90;;;;;;5072259;28;20249;-79
2023/02/05 06:25:37;;;;;;;20.50;14.88;;;8.80;99.90;;;;;;5073426;28;20167;-79
2023/02/05 06:28:02;;;;;;;18.58;13.65;;;8.80;99.90;;;;;;5073531;28;20653;-81
2023/02/05 06:30:28;;;;;;;16.05;13.30;;;8.80;99.90;;;;;;5074015;28;20223;-79
2023/02/05 06:32:54;;;;;;;17.95;11.95;;;8.80;99.90;;;;;;5073969;28;20535;-78
2023/02/05 06:35:19;;;;;;;16.05;10.52;;;8.70;99.90;;;;;;5073666;28;20171;-79
2023/02/05 06:37:45;;;;;;;13.63;8.38;;;8.60;99.90;;;;;;5073859;28;20167;-81
2023/02/05 06:40:11;;;;;;;6.05;3.53;;;8.60;99.90;;;;;;5073731;28;20171;-82
2023/02/05 06:42:37;;;;;;;11.73;2.97;;;8.50;99.90;;;;;;5073285;28;20169;-79
2023/02/05 06:45:03;;;;;;;6.30;2.15;;;8.40;99.90;;;;;;5073559;28;20171;-78
2023/02/05 06:47:29;;;;;;;5.85;1.35;;;8.30;99.90;;;;;;5072049;28;20209;-78
2023/02/05 06:49:54;;;;;;;6.60;1.35;;;8.20;99.90;;;;;;5073584;28;20188;-78
2023/02/05 06:52:20;;;;;;;7.43;1.30;;;8.10;99.90;;;;;;5071800;28;20260;-79
2023/02/05 06:54:45;;;;;;;6.38;1.65;;;8.00;99.90;;;;;;5073269;28;20175;-78
2023/02/05 06:57:11;;;;;;;8.93;1.77;;;8.00;99.90;;;;;;5073232;28;20171;-79
2023/02/05 06:59:37;;;;;;;7.65;1.30;;;7.90;99.90;;;;;;5071611;28;20166;-78
2023/02/05 07:02:02;;;;;;;6.60;1.48;;;7.90;99.90;;;;;;5073159;28;20564;-79
2023/02/05 07:04:29;;;;;;;5.10;1.35;;;8.00;99.90;;;;;;5073169;28;20167;-78
2023/02/05 07:06:56;;;;;;;15.30;1.88;;;8.10;99.90;;;;;;5072902;28;20162;-79
2023/02/05 07:09:22;;;;;;;7.32;1.60;;;8.10;99.90;;;;;;5073027;28;20166;-78
2023/02/05 07:11:48;;;;;;;9.32;1.83;;;8.00;99.90;;;;;;5072785;28;20701;-79
2023/02/05 07:14:14;;;;;;;16.17;1.60;;;8.00;99.90;;;;;;5072964;28;20194;-78
2023/02/05 07:16:39;;;;;;;8.55;2.33;;;8.00;99.90;;;;;;5072906;28;20205;-81
2023/02/05 07:19:05;;;;;;;8.65;1.98;;;8.10;99.90;;;;;;5072801;28;20228;-78
2023/02/05 07:21:31;;;;;;;14.35;1.35;;;8.20;99.90;;;;;;5072389;28;20660;-78
2023/02/05 07:23:57;;;;;;;13.50;1.95;;;8.10;99.90;;;;;;5071442;28;20166;-82
2023/02/05 07:26:22;;;;;;;10.82;2.08;;;8.10;99.90;;;;;;5072641;28;20166;-78
2023/02/05 07:28:48;;;;;;;19.38;2.95;;;8.10;99.90;;;;;;5072554;28;20301;-78
2023/02/05 07:31:17;;;;;;;9.40;2.30;;;8.00;99.90;;;;;;5072498;28;20209;-78
2023/02/05 07:33:44;;;;;;;13.65;2.10;;;8.00;99.90;;;;;;5072529;28;20174;-78
2023/02/05 07:36:12;;;;;;;11.05;2.03;;;8.00;99.90;;;;;;5071550;28;20654;-83
2023/02/05 07:38:38;;;;;;;7.60;1.63;;;7.90;99.90;;;;;;5072709;28;20165;-79
2023/02/05 07:41:05;;;;;;;5.47;1.27;;;7.90;99.90;;;;;;5072394;28;20672;-78
2023/02/05 07:43:31;;;;;;;13.63;1.50;;;7.90;99.90;;;;;;5072582;28;20163;-78
2023/02/05 07:45:58;;;;;;;13.10;1.85;;;7.90;99.90;;;;;;5072317;28;20163;-79
2023/02/05 07:48:23;;;;;;;14.63;1.77;;;7.90;99.90;;;;;;5072365;28;20245;-78
2023/02/05 07:50:49;;;;;;;4.13;1.30;;;8.00;99.90;;;;;;5071902;28;20281;-79
2023/02/05 07:53:15;;;;;;;6.60;1.77;;;7.90;99.90;;;;;;5072251;28;20623;-80
2023/02/05 07:55:40;;;;;;;2.65;1.45;;;8.00;99.90;;;;;;5071829;28;20224;-78
2023/02/05 07:58:06;;;;;;;14.60;1.70;;;7.90;99.90;;;;;;5071871;28;20598;-81
2023/02/05 08:00:31;;;;;;;20.50;1.75;;;7.90;99.90;;;;;;5072106;28;20548;-79
2023/02/05 08:02:57;;;;;;;6.25;1.25;;;7.90;99.90;;;;;;5072103;28;20170;-79
2023/02/05 08:05:23;;;;;;;7.15;1.48;;;7.90;99.90;;;;;;5072024;28;20197;-81
2023/02/05 08:07:48;;;;;;;7.43;1.30;;;7.90;99.90;;;;;;5071608;28;20250;-82
2023/02/05 08:10:14;;;;;;;9.27;1.52;;;8.00;99.90;;;;;;5071847;28;20556;-79
2023/02/05 08:12:40;;;;;;;5.82;1.58;;;8.10;99.90;;;;;;5071661;28;20214;-79
2023/02/05 08:15:06;;;;;;;15.10;1.25;;;8.00;99.90;;;;;;5072171;28;20182;-78
2023/02/05 08:17:31;;;;;;;5.63;1.48;;;8.00;99.90;;;;;;5071840;28;20170;-78
2023/02/05 08:20:01;;;;;;;3.97;1.02;;;8.20;99.90;;;;;;5072044;28;20619;-79
2023/02/05 08:22:27;;;;;;;13.27;1.33;;;8.20;99.90;;;;;;5071804;28;20191;-78
2023/02/05 08:24:53;;;;;;;14.60;1.70;;;8.20;99.90;;;;;;5070472;28;20170;-78
2023/02/05 08:27:18;;;;;;;16.23;2.05;;;8.20;99.90;;;;;;5071475;28;20642;-82
2023/02/05 08:29:47;;;;;;;8.68;1.38;;;8.40;99.90;;;;;;5071627;28;20174;-78
2023/02/05 08:32:13;;;;;;;6.95;1.85;;;8.30;99.90;;;;;;5071727;28;20206;-82
2023/02/05 08:34:39;;;;;;;19.40;2.13;;;8.30;99.90;;;;;;5071811;28;20498;-78
2023/02/05 08:37:04;;;;;;;10.13;1.80;;;8.40;99.90;;;;;;5071355;28;20208;-78
2023/02/05 08:39:30;;;;;;;11.02;1.95;;;8.40;99.90;;;;;;5071485;28;20171;-79
2023/02/05 08:41:55;;;;;;;9.63;2.00;;;8.30;99.90;;;;;;5071527;28;20216;-81
2023/02/05 08:44:21;;;;;;;8.68;1.60;;;8.30;99.90;;;;;;5071690;28;20193;-79
2023/02/05 08:46:46;;;;;;;15.30;1.77;;;8.40;99.90;;;;;;5072970;28;20177;-78
2023/02/05 08:49:12;;;;;;;13.93;1.60;;;8.30;99.90;;;;;;5075444;28;20169;-78
2023/02/05 08:51:37;;;;;;;17.20;1.92;;;8.30;99.90;;;;;;5075167;28;20600;-81
2023/02/05 08:54:08;;;;;;;12.93;1.42;;;8.40;99.90;;;;;;5075280;28;20174;-79
2023/02/05 08:56:33;;;;;;;11.10;1.90;;;8.30;99.90;;;;;;5075526;28;20545;-80
2023/02/05 08:58:59;;;;;;;20.95;2.03;;;8.40;99.90;;;;;;5075359;28;20163;-82
2023/02/05 09:01:24;;;;;;;22.15;2.75;;;8.40;99.90;;;;;;5075591;28;20201;-80
2023/02/05 09:03:50;;;;;;;13.55;1.95;;;8.50;99.90;;;;;;5075525;28;20623;-82
2023/02/05 09:06:16;;;;;;;22.15;1.98;;;8.30;99.90;;;;;;5075936;28;20178;-79
2023/02/05 09:08:42;;;;;;;14.43;1.63;;;8.30;99.90;;;;;;5075277;28;20166;-79
2023/02/05 09:11:07;;;;;;;15.23;2.75;;;8.40;99.90;;;;;;5076435;28;20214;-79
2023/02/05 09:13:34;;;;;;;12.82;2.40;;;8.40;99.90;;;;;;5077296;28;20626;-78
2023/02/05 09:15:59;;;;;;;15.38;2.65;;;8.40;99.90;;;;;;5077446;28;20214;-79
2023/02/05 09:18:26;;;;;;;11.00;1.40;;;8.40;99.90;;;;;;5078563;28;20623;-79
2023/02/05 09:20:53;;;;;;;15.73;2.65;;;8.30;99.90;;;;;;5076360;28;20187;-78
2023/02/05 09:23:19;;;;;;;11.18;1.73;;;8.30;99.90;;;;;;5074306;28;20630;-78
2023/02/05 09:25:44;;;;;;;15.27;2.03;;;8.50;99.90;;;;;;5078432;28;20254;-79
2023/02/05 09:28:12;;;;;;;17.92;2.50;;;8.60;99.90;;;;;;5076234;28;20562;-79
2023/02/05 09:30:40;;;;;;;20.75;2.67;;;8.60;99.90;;;;;;5075008;28;20261;-79
2023/02/05 09:33:06;;;;;;;6.93;1.90;;;8.50;99.90;;;;;;5081114;28;20592;-78
2023/02/05 09:35:33;;;;;;;23.75;2.25;;;8.20;99.90;;;;;;5082272;28;20171;-81
2023/02/05 09:38:01;;;;;;;11.32;2.00;;;7.90;99.90;;;;;;5081261;28;20178;-78
2023/02/05 09:40:31;;;;;;;20.95;2.25;;;7.80;99.90;;;;;;5077005;28;20178;-80
2023/02/05 09:43:25;;;;;;;17.38;2.13;;;7.90;99.90;;;;;;5075210;28;20314;-78
2023/02/05 09:46:14;;;;;;;14.07;2.58;;;7.80;99.90;;;;;;5047913;28;20198;-78
2023/02/05 09:48:51;;;;;;;14.63;3.03;;;7.80;99.90;;;;;;5074191;28;20166;-78
2023/02/05 09:51:21;;;;;;;23.50;2.63;;;7.90;99.90;;;;;;5072833;28;20210;-78
2023/02/05 09:53:52;;;;;;;20.60;2.30;;;7.70;99.90;;;;;;5074604;28;20254;-79
2023/02/05 09:56:18;;;;;;;21.48;2.83;;;7.70;99.90;;;;;;5072646;28;20166;-78
2023/02/05 09:58:48;;;;;;;16.90;1.88;;;7.90;99.90;;;;;;5071618;28;20171;-78
2023/02/05 10:01:14;;;;;;;17.83;2.22;;;8.20;99.90;;;;;;5074249;28;20284;-79
2023/02/05 10:03:45;;;;;;;16.67;2.08;;;8.10;99.90;;;;;;5066600;28;20282;-82
2023/02/05 10:06:35;;;;;;;24.67;2.83;;;8.10;99.90;;;;;;5090936;28;20177;-83
2023/02/05 10:09:38;;;;;;;11.07;2.22;;;8.00;99.90;;;;;;5093192;28;20172;-79
2023/02/05 10:12:22;;;;;;;24.80;2.85;;;7.90;99.90;;;;;;5093262;28;20213;-85
2023/02/05 10:14:57;;;;;;;38.25;3.92;;;7.90;99.90;;;;;;5059446;28;20201;-83
2023/02/05 10:17:33;;;;;;;20.42;2.40;;;8.00;99.90;;;;;;5071323;28;20174;-83
2023/02/05 10:20:22;;;;;;;17.98;3.08;;;8.20;99.90;;;;;;5071633;28;20886;-81
2023/02/05 10:23:06;;;;;;;13.80;2.28;;;8.30;99.90;;;;;;5064965;28;20167;-82
2023/02/05 10:25:54;;;;;;;21.50;3.13;;;8.40;99.90;;;;;;5072888;28;20189;-81
2023/02/05 10:28:41;;;;;;;11.00;1.98;;;8.30;99.90;;;;;;5071873;28;20232;-83
2023/02/05 10:31:09;;;;;;;28.67;3.25;;;8.30;99.90;;;;;;5070794;28;20190;-80
2023/02/05 10:33:47;;;;;;;14.90;2.20;;;8.50;99.90;;;;;;5071660;28;20197;-82
2023/02/05 10:36:14;;;;;;;27.33;2.65;;;8.70;99.90;;;;;;5071339;28;20184;-81
2023/02/05 10:38:44;;;;;;;26.77;2.90;;;8.80;99.90;;;;;;5072639;28;20171;-78
2023/02/05 10:41:21;;;;;;;22.00;3.10;;;9.10;99.90;;;;;;5071291;28;20241;-83
2023/02/05 10:44:15;;;;;;;29.95;4.03;;;9.20;99.90;;;;;;5084276;28;20182;-82
2023/02/05 10:46:42;;;;;;;17.92;3.13;;;9.30;99.90;;;;;;5070368;28;20227;-82
2023/02/05 10:49:30;;;;;;;25.95;2.90;;;8.90;99.90;;;;;;5070014;28;20249;-81
2023/02/05 10:51:55;;;;;;;18.83;2.22;;;8.90;99.90;;;;;;5071648;28;20673;-79
2023/02/05 10:54:21;;;;;;;23.50;3.65;;;9.00;99.90;;;;;;5059983;28;20167;-80
2023/02/05 10:56:47;;;;;;;19.88;3.42;;;8.70;99.90;;;;;;5051596;28;20179;-83
2023/02/05 10:59:26;;;;;;;18.88;2.80;;;8.70;99.90;;;;;;5064585;28;20178;-84
2023/02/05 11:01:53;;;;;;;13.57;2.90;;;8.80;99.90;;;;;;5069867;28;20226;-81
2023/02/05 11:04:35;;;;;;;24.23;2.47;;;8.80;99.90;;;;;;5070061;28;20198;-80
2023/02/05 11:07:04;;;;;;;16.77;3.38;;;8.70;99.90;;;;;;5070346;28;20289;-81
2023/02/05 11:09:33;;;;;;;23.33;3.10;;;8.80;99.90;;;;;;5071495;28;20175;-82
2023/02/05 11:12:01;;;;;;;16.67;3.45;;;8.90;99.90;;;;;;5069326;28;20570;-82
2023/02/05 11:14:38;;;;;;;27.50;3.95;;;9.00;99.90;;;;;;5071387;28;20205;-81
2023/02/05 11:17:29;;;;;;;17.42;2.67;;;9.20;99.90;;;;;;5069680;28;20588;-80
2023/02/05 11:20:15;;;;;;;32.53;4.65;;;9.30;99.90;;;;;;5052163;28;20160;-81
2023/02/05 11:22:41;;;;;;;22.25;4.10;;;9.20;99.90;;;;;;5050268;28;20415;-82
2023/02/05 11:25:21;;;;;;;21.02;3.13;;;9.20;99.90;;;;;;5071496;28;20162;-82
2023/02/05 11:27:58;;;;;;;13.27;3.15;;;9.40;99.90;;;;;;5070715;28;20189;-84
2023/02/05 11:30:32;;;;;;;23.65;2.83;;;9.50;99.90;;;;;;5071158;28;20162;-82
2023/02/05 11:33:14;;;;;;;24.05;3.22;;;9.70;99.90;;;;;;5071229;28;20248;-80
2023/02/05 11:35:47;;;;;;;28.70;3.63;;;9.80;99.90;;;;;;5070762;28;20514;-82
2023/02/05 11:38:32;;;;;;;25.42;3.60;;;9.80;99.90;;;;;;5071035;28;20215;-81
2023/02/05 11:41:01;;;;;;;22.15;2.80;;;9.60;99.90;;;;;;5070936;28;20398;-79
2023/02/05 11:43:49;;;;;;;19.58;3.20;;;9.40;99.90;;;;;;5071309;28;20247;-81
2023/02/05 11:46:19;;;;;;;22.45;2.97;;;9.40;99.90;;;;;;5071338;28;20178;-79
2023/02/05 11:49:01;;;;;;;22.60;3.00;;;9.40;99.90;;;;;;5069832;28;20166;-80
2023/02/05 11:51:31;;;;;;;15.30;3.25;;;9.40;99.90;;;;;;5071496;28;20205;-81
2023/02/05 11:53:59;;;;;;;12.88;2.88;;;9.40;99.90;;;;;;5071385;28;20210;-82
2023/02/05 11:56:25;;;;;;;15.88;2.47;;;9.30;99.90;;;;;;5070420;28;20178;-81
2023/02/05 11:59:03;;;;;;;25.00;3.08;;;9.30;99.90;;;;;;5070347;28;20534;-83
2023/02/05 12:01:34;;;;;;;17.25;3.10;;;9.30;99.90;;;;;;5070608;28;20693;-85
2023/02/05 12:04:15;;;;;;;17.60;2.92;;;9.20;99.90;;;;;;5066517;28;20178;-84
2023/02/05 12:07:05;;;;;;;22.33;3.20;;;9.20;99.90;;;;;;5070338;28;20269;-83
2023/02/05 12:09:31;;;;;;;19.85;3.45;;;9.30;99.90;;;;;;5070725;28;20275;-83
2023/02/05 12:12:21;;;;;;;15.30;3.20;;;9.30;99.90;;;;;;5069608;28;20206;-81
2023/02/05 12:15:17;;;;;;;22.52;3.47;;;9.20;99.90;;;;;;5070303;28;20182;-82
2023/02/05 12:18:01;;;;;;;18.80;2.95;;;9.10;99.90;;;;;;5067560;28;20179;-79
2023/02/05 12:20:39;;;;;;;26.25;2.88;;;9.00;99.90;;;;;;5073278;28;20194;-83
2023/02/05 12:23:23;;;;;;;24.75;3.08;;;9.10;99.90;;;;;;5075100;28;20223;-85
2023/02/05 12:26:07;;;;;;;27.50;3.25;;;9.20;99.90;;;;;;5075170;28;20179;-82
2023/02/05 12:28:39;;;;;;;18.98;3.13;;;9.20;99.90;;;;;;5074310;28;20263;-81
2023/02/05 12:31:49;;;;;;;25.48;3.13;;;9.20;99.90;;;;;;5073665;28;20218;-84
2023/02/05 12:34:23;;;;;;;16.17;2.55;;;9.30;99.90;;;;;;5054021;28;20183;-80
2023/02/05 12:37:04;;;;;;;25.48;3.22;;;9.50;99.90;;;;;;5072432;28;20178;-82
2023/02/05 12:39:35;;;;;;;27.75;3.55;;;9.50;99.90;;;;;;5072190;28;20204;-84
2023/02/05 12:42:12;;;;;;;16.45;3.38;;;9.70;99.90;;;;;;5073683;28;20197;-84
2023/02/05 12:45:08;;;;;;;18.52;2.78;;;9.80;99.90;;;;;;5075166;28;20260;-85
2023/02/05 12:48:04;;;;;;;39.50;2.55;;;9.80;99.90;;;;;;5073984;28;20840;-83
2023/02/05 12:51:00;;;;;;;15.38;3.17;;;9.90;99.90;;;;;;5070889;28;20177;-84
2023/02/05 12:53:29;;;;;;;16.48;2.13;;;9.90;99.90;;;;;;5073030;28;20622;-81
2023/02/05 12:56:31;;;;;;;24.80;2.45;;;9.90;99.90;;;;;;5073558;28;20171;-83
2023/02/05 12:59:10;;;;;;;17.88;2.50;;;9.80;99.90;;;;;;5072851;28;20933;-85
2023/02/05 13:01:58;;;;;;;18.92;3.28;;;9.70;99.90;;;;;;5072189;28;20607;-81
2023/02/05 13:04:40;;;;;;;17.42;2.95;;;9.70;99.90;;;;;;5072611;28;20170;-84
2023/02/05 13:07:12;;;;;;;14.75;2.40;;;9.60;99.90;;;;;;5074116;28;20174;-86